Time;durP1;ratioP1;P1;durP2;ratioP2;P2;SDS_P1;SDS_P2;PMS_P1;PMS_P2;Temp;Humidity;BMP_temperature;BMP_pressure;BME280_temperature;BME280_humidity;BME280_pressure;Samples;Min_cycle;Max_cycle;Signal;HPM_P1;HPM_P2
2022/05/02 00:00:10;;;;;;;7.72;5.85;;;7.90;96.70;;;;;;5075886;28;20043;-45
2022/05/02 00:02:37;;;;;;;8.18;5.53;;;7.90;97.00;;;;;;5092260;28;20413;-46
2022/05/02 00:05:03;;;;;;;;;;;7.90;96.90;;;;;;5077630;28;20072;-46
2022/05/02 00:07:29;;;;;;;5.93;5.40;;;7.90;97.40;;;;;;5071570;28;19927;-47
2022/05/02 00:09:55;;;;;;;19.05;5.63;;;7.90;97.10;;;;;;5071538;28;20041;-46
2022/05/02 00:12:20;;;;;;;5.93;5.32;;;7.90;96.90;;;;;;5071849;28;20079;-46
2022/05/02 00:14:46;;;;;;;8.27;4.53;;;7.80;97.50;;;;;;5071004;28;20037;-47
2022/05/02 00:17:11;;;;;;;14.53;5.60;;;7.90;97.70;;;;;;5072855;28;20104;-45
2022/05/02 00:19:37;;;;;;;5.80;5.23;;;7.90;97.90;;;;;;5071538;28;20048;-45
2022/05/02 00:22:03;;;;;;;7.07;5.60;;;7.90;98.10;;;;;;5071640;28;20063;-47
2022/05/02 00:24:29;;;;;;;5.30;4.60;;;7.90;98.00;;;;;;5072862;28;20369;-47
2022/05/02 00:26:56;;;;;;;5.93;5.05;;;7.90;97.90;;;;;;5071133;28;20525;-47
2022/05/02 00:29:22;;;;;;;5.07;4.57;;;7.90;97.40;;;;;;5072629;28;20046;-45
2022/05/02 00:31:48;;;;;;;6.05;5.45;;;7.90;97.10;;;;;;5075526;28;20509;-45
2022/05/02 00:34:13;;;;;;;6.77;6.07;;;7.80;97.30;;;;;;5092042;28;20039;-45
2022/05/02 00:36:39;;;;;;;10.33;6.40;;;7.80;97.80;;;;;;5076834;28;20283;-46
2022/05/02 00:39:05;;;;;;;7.25;5.30;;;7.80;98.10;;;;;;5076561;28;20081;-46
2022/05/02 00:41:31;;;;;;;6.33;5.20;;;7.90;98.20;;;;;;5070821;28;20044;-48
2022/05/02 00:43:56;;;;;;;6.07;5.25;;;7.80;98.20;;;;;;5087771;28;20048;-45
2022/05/02 00:46:24;;;;;;;5.82;5.07;;;7.90;98.40;;;;;;5072698;28;20126;-46
2022/05/02 00:48:50;;;;;;;7.32;5.30;;;7.80;97.90;;;;;;5082573;28;20037;-46
2022/05/02 00:51:16;;;;;;;6.30;5.70;;;7.70;98.00;;;;;;5075626;28;20081;-46
2022/05/02 00:53:44;;;;;;;7.13;6.32;;;7.70;97.80;;;;;;5071167;28;20072;-45
2022/05/02 00:56:09;;;;;;;5.40;4.90;;;7.70;97.90;;;;;;5070432;28;20465;-46
2022/05/02 00:58:36;;;;;;;5.33;4.83;;;7.70;97.70;;;;;;5070651;28;20080;-46
2022/05/02 01:01:03;;;;;;;7.07;5.88;;;7.60;97.50;;;;;;5070889;28;20686;-45
2022/05/02 01:03:29;;;;;;;8.25;6.95;;;7.50;97.50;;;;;;5075376;28;20047;-46
2022/05/02 01:08:40;;;;;;;6.95;6.25;;;7.40;98.10;;;;;;5069832;28;20048;-46
2022/05/02 01:11:05;;;;;;;5.90;5.13;;;7.40;98.10;;;;;;5070808;28;20037;-45
2022/05/02 01:13:37;;;;;;;7.20;6.57;;;7.30;97.90;;;;;;5072460;28;20775;-45
2022/05/02 01:16:24;;;;;;;9.45;6.88;;;7.30;98.00;;;;;;5071573;28;20044;-45
2022/05/02 01:18:58;;;;;;;9.23;7.18;;;7.30;98.50;;;;;;5072947;28;20048;-45
2022/05/02 01:21:25;;;;;;;6.90;6.20;;;7.30;98.80;;;;;;5080495;28;20043;-45
2022/05/02 01:23:54;;;;;;;6.05;5.55;;;7.30;98.60;;;;;;5073086;28;20044;-45
2022/05/02 01:26:20;;;;;;;7.10;5.40;;;7.20;98.10;;;;;;5075234;28;20043;-46
2022/05/02 01:28:51;;;;;;;10.30;6.32;;;7.10;97.70;;;;;;5079898;28;20413;-46
2022/05/02 01:31:20;;;;;;;9.80;6.43;;;7.00;97.70;;;;;;5071112;28;20076;-47
2022/05/02 01:33:48;;;;;;;11.40;8.50;;;7.00;98.10;;;;;;5070245;28;20044;-47
2022/05/02 01:36:14;;;;;;;11.35;8.27;;;7.00;98.50;;;;;;5070129;28;20044;-45
2022/05/02 01:38:40;;;;;;;9.77;7.30;;;7.00;98.80;;;;;;5070059;28;20448;-49
2022/05/02 01:41:07;;;;;;;7.43;6.73;;;7.00;99.20;;;;;;5068904;28;20089;-47
2022/05/02 01:43:33;;;;;;;7.32;6.63;;;7.00;99.10;;;;;;5082462;28;20032;-47
2022/05/02 01:45:59;;;;;;;8.18;6.65;;;7.10;99.30;;;;;;5069576;28;20398;-46
2022/05/02 01:48:26;;;;;;;8.20;6.55;;;7.00;99.20;;;;;;5072183;28;20036;-46
2022/05/02 01:50:51;;;;;;;7.53;6.72;;;7.00;99.30;;;;;;5076666;28;20093;-46
2022/05/02 01:53:17;;;;;;;7.93;6.22;;;7.00;99.10;;;;;;5070064;28;20108;-46
2022/05/02 01:55:43;;;;;;;8.40;6.50;;;7.00;98.50;;;;;;5069373;28;20516;-46
2022/05/02 01:58:09;;;;;;;8.93;8.13;;;6.90;98.60;;;;;;5069455;28;20440;-45
2022/05/02 02:00:34;;;;;;;7.53;6.80;;;6.90;98.50;;;;;;5069606;28;20033;-45
2022/05/02 02:03:00;;;;;;;8.87;6.80;;;6.80;98.50;;;;;;5069267;28;20036;-46
2022/05/02 02:08:10;;;;;;;6.97;6.25;;;6.60;98.20;;;;;;5071510;28;20048;-46
2022/05/02 02:10:35;;;;;;;9.67;7.33;;;6.50;98.30;;;;;;5079000;28;20036;-46
2022/05/02 02:13:01;;;;;;;9.68;8.18;;;6.40;98.50;;;;;;5069568;28;20033;-46
2022/05/02 02:15:27;;;;;;;7.03;6.32;;;6.50;99.50;;;;;;5068766;28;20036;-45
2022/05/02 02:17:52;;;;;;;9.45;6.30;;;6.50;99.50;;;;;;5084342;28;20443;-46
2022/05/02 02:20:18;;;;;;;8.60;5.33;;;6.50;99.10;;;;;;5074682;28;20032;-45
2022/05/02 02:22:44;;;;;;;8.17;6.23;;;6.50;99.10;;;;;;5077349;28;20320;-47
2022/05/02 02:25:10;;;;;;;6.97;6.27;;;6.50;98.90;;;;;;5078356;28;20135;-48
2022/05/02 02:27:35;;;;;;;10.35;7.03;;;6.40;99.10;;;;;;5084771;28;20039;-46
2022/05/02 02:30:01;;;;;;;6.63;5.87;;;6.40;98.90;;;;;;5075676;28;20052;-45
2022/05/02 02:32:27;;;;;;;9.67;7.13;;;6.40;98.90;;;;;;5069600;28;20064;-45
2022/05/02 02:34:53;;;;;;;8.13;7.35;;;6.40;98.90;;;;;;5069362;28;20037;-48
2022/05/02 02:37:18;;;;;;;6.78;6.15;;;6.40;99.20;;;;;;5069262;28;20042;-45
2022/05/02 02:39:45;;;;;;;6.72;6.13;;;6.40;99.50;;;;;;5069747;28;20033;-46
2022/05/02 02:42:10;;;;;;;7.78;6.50;;;6.30;98.80;;;;;;5072639;28;20557;-45
2022/05/02 02:44:36;;;;;;;15.63;6.70;;;6.30;98.70;;;;;;5070374;28;20045;-47
2022/05/02 02:47:03;;;;;;;9.87;7.03;;;6.30;98.60;;;;;;5078107;28;20557;-47
2022/05/02 02:49:28;;;;;;;;;;;6.20;99.00;;;;;;5068946;28;20410;-46
2022/05/02 02:51:54;;;;;;;9.65;7.30;;;6.20;99.30;;;;;;5068348;28;19920;-47
2022/05/02 02:54:20;;;;;;;7.50;6.80;;;6.20;99.50;;;;;;5069820;28;20397;-46
2022/05/02 02:56:46;;;;;;;8.77;7.53;;;6.20;99.60;;;;;;5068862;28;20033;-46
2022/05/02 02:59:11;;;;;;;9.68;8.10;;;6.20;99.70;;;;;;5068709;28;20105;-45
2022/05/02 03:01:37;;;;;;;11.30;7.73;;;6.10;99.60;;;;;;5082545;28;20409;-46
2022/05/02 03:06:01;;;;;;;14.65;9.20;;;6.20;99.70;;;;;;5069883;28;20094;-48
2022/05/02 03:06:49;;;;;;;10.52;9.07;;;6.20;99.90;;;;;;5060561;28;20083;-46
2022/05/02 03:09:15;;;;;;;10.50;8.00;;;6.20;99.90;;;;;;5071998;28;20086;-47
2022/05/02 03:11:40;;;;;;;8.37;7.53;;;6.10;99.90;;;;;;5080303;28;20044;-46
2022/05/02 03:14:06;;;;;;;13.47;7.47;;;6.20;99.90;;;;;;5081773;28;20056;-45
2022/05/02 03:16:31;;;;;;;8.83;7.87;;;6.10;99.70;;;;;;5073237;28;20497;-46
2022/05/02 03:18:57;;;;;;;10.37;9.27;;;6.10;99.60;;;;;;5087199;28;20040;-47
2022/05/02 03:21:22;;;;;;;11.40;9.53;;;6.00;99.70;;;;;;5072816;28;20127;-45
2022/05/02 03:23:48;;;;;;;10.07;9.07;;;6.00;99.90;;;;;;5072966;28;20036;-48
2022/05/02 03:26:14;;;;;;;12.87;7.73;;;6.00;99.90;;;;;;5073439;28;20032;-45
2022/05/02 03:28:40;;;;;;;11.70;7.85;;;6.00;99.90;;;;;;5083098;28;20165;-45
2022/05/02 03:31:05;;;;;;;12.50;7.90;;;5.90;99.70;;;;;;5092708;28;20119;-46
2022/05/02 03:33:31;;;;;;;9.80;7.03;;;5.80;99.60;;;;;;5072482;28;20048;-46
2022/05/02 03:35:56;;;;;;;12.40;8.93;;;5.80;99.60;;;;;;5082118;28;20028;-45
2022/05/02 03:38:22;;;;;;;9.83;8.70;;;5.80;99.70;;;;;;5092668;28;20111;-46
2022/05/02 03:40:47;;;;;;;11.87;8.80;;;5.70;99.60;;;;;;5090564;28;20040;-48
2022/05/02 03:43:13;;;;;;;7.70;6.07;;;5.70;99.80;;;;;;5083146;28;20024;-46
2022/05/02 03:45:38;;;;;;;7.73;6.93;;;5.60;99.50;;;;;;5090336;28;20136;-45
2022/05/02 03:48:04;;;;;;;9.70;7.77;;;5.60;99.70;;;;;;5073153;28;20105;-45
2022/05/02 03:50:30;;;;;;;9.52;7.82;;;5.60;99.80;;;;;;5080899;28;20082;-45
2022/05/02 03:52:56;;;;;;;6.77;6.17;;;5.60;99.90;;;;;;5092192;28;20031;-45
2022/05/02 03:55:22;;;;;;;7.00;6.07;;;5.60;99.70;;;;;;5073097;28;20367;-46
2022/05/02 03:57:48;;;;;;;9.07;6.32;;;5.60;99.90;;;;;;5080143;28;20154;-46
2022/05/02 04:00:14;;;;;;;7.38;6.13;;;5.50;99.90;;;;;;5092572;28;20508;-46
2022/05/02 04:02:39;;;;;;;7.03;6.43;;;5.60;99.90;;;;;;5074364;28;20105;-46
2022/05/02 04:05:06;;;;;;;7.28;6.47;;;5.50;99.90;;;;;;5078602;28;20492;-46
2022/05/02 04:07:31;;;;;;;;;;;5.50;99.90;;;;;;5092662;28;20058;-45
2022/05/02 04:09:57;;;;;;;7.60;6.90;;;5.50;99.90;;;;;;5074249;28;19920;-45
2022/05/02 04:12:22;;;;;;;7.93;6.50;;;5.50;99.60;;;;;;5079543;28;20032;-46
2022/05/02 04:14:48;;;;;;;7.87;7.03;;;5.40;99.70;;;;;;5091603;28;20036;-47
2022/05/02 04:17:14;;;;;;;6.57;5.97;;;5.30;99.80;;;;;;5074352;28;20032;-46
2022/05/02 04:19:39;;;;;;;6.30;5.70;;;5.30;99.40;;;;;;5078237;28;20104;-46
2022/05/02 04:22:05;;;;;;;8.50;7.23;;;5.20;99.60;;;;;;5091676;28;20051;-45
2022/05/02 04:24:31;;;;;;;11.33;8.57;;;5.20;99.90;;;;;;5082545;28;20043;-46
2022/05/02 04:26:57;;;;;;;8.65;7.15;;;5.20;99.90;;;;;;5085157;28;20040;-45
2022/05/02 04:29:23;;;;;;;8.88;7.53;;;5.20;99.90;;;;;;5072044;28;20128;-46
2022/05/02 04:31:49;;;;;;;8.25;7.30;;;5.10;99.90;;;;;;5076063;28;20126;-47
2022/05/02 04:34:14;;;;;;;11.23;9.23;;;5.10;99.90;;;;;;5072021;28;20099;-45
2022/05/02 04:36:40;;;;;;;12.57;10.67;;;5.10;99.90;;;;;;5070684;28;20039;-46
2022/05/02 04:39:06;;;;;;;13.83;10.17;;;5.10;99.90;;;;;;5071259;28;20113;-46
2022/05/02 04:41:31;;;;;;;13.00;10.13;;;5.20;99.90;;;;;;5075931;28;20496;-46
2022/05/02 04:43:57;;;;;;;9.73;7.90;;;5.30;99.90;;;;;;5086367;28;20128;-46
2022/05/02 04:46:23;;;;;;;10.00;8.98;;;5.30;99.90;;;;;;5077869;28;20054;-46
2022/05/02 04:48:48;;;;;;;10.43;9.13;;;5.30;99.90;;;;;;5078777;28;20032;-46
2022/05/02 04:51:14;;;;;;;11.90;9.32;;;5.30;99.90;;;;;;5071398;28;20722;-46
2022/05/02 04:53:40;;;;;;;14.37;10.00;;;5.30;99.90;;;;;;5079044;28;20030;-47
2022/05/02 04:56:05;;;;;;;15.73;9.02;;;5.40;99.90;;;;;;5080739;28;20040;-47
2022/05/02 04:58:31;;;;;;;12.97;8.83;;;5.40;99.90;;;;;;5071218;28;20047;-45
2022/05/02 05:00:56;;;;;;;13.00;9.90;;;5.50;99.90;;;;;;5089240;28;20040;-46
2022/05/02 05:03:22;;;;;;;12.13;9.53;;;5.50;99.90;;;;;;5079526;28;20401;-46
2022/05/02 05:05:48;;;;;;;17.40;10.77;;;5.60;99.90;;;;;;5071616;28;20444;-45
2022/05/02 05:08:14;;;;;;;12.20;8.82;;;5.60;99.90;;;;;;5089117;28;20040;-46
2022/05/02 05:11:02;;;;;;;13.98;10.45;;;5.60;99.90;;;;;;5080315;28;20040;-45
2022/05/02 05:13:38;;;;;;;8.95;8.05;;;5.70;99.90;;;;;;5074828;28;20044;-45
2022/05/02 05:16:24;;;;;;;9.23;7.93;;;5.70;99.90;;;;;;5090825;28;20040;-46
2022/05/02 05:18:53;;;;;;;10.57;8.70;;;5.70;99.90;;;;;;5075885;28;20044;-46
2022/05/02 05:21:44;;;;;;;9.77;8.77;;;5.80;99.90;;;;;;5087460;28;20136;-47
2022/05/02 05:24:31;;;;;;;10.68;9.43;;;5.90;99.90;;;;;;5081816;28;20037;-46
2022/05/02 05:27:13;;;;;;;12.45;8.65;;;6.00;99.90;;;;;;5070933;28;20040;-46
2022/05/02 05:30:09;;;;;;;11.70;10.00;;;6.10;99.90;;;;;;5084115;28;20485;-47
2022/05/02 05:32:50;;;;;;;11.13;9.68;;;6.20;99.90;;;;;;5057949;28;20056;-46
2022/05/02 05:35:23;;;;;;;12.73;10.15;;;6.30;99.90;;;;;;5069290;28;20489;-48
2022/05/02 05:38:02;;;;;;;15.23;10.90;;;6.30;99.90;;;;;;5073667;28;20086;-45
2022/05/02 05:40:30;;;;;;;18.38;11.52;;;6.40;99.90;;;;;;5081792;28;20413;-46
2022/05/02 05:43:10;;;;;;;16.55;11.30;;;6.50;99.90;;;;;;5085644;28;20401;-45
2022/05/02 05:46:04;;;;;;;15.95;11.20;;;6.60;99.90;;;;;;5078116;28;20086;-45
2022/05/02 05:48:54;;;;;;;16.98;12.07;;;6.80;99.90;;;;;;5081327;28;20040;-45
2022/05/02 05:51:22;;;;;;;13.95;10.48;;;6.80;99.90;;;;;;5081846;28;20051;-46
2022/05/02 05:54:09;;;;;;;16.15;12.73;;;7.00;99.90;;;;;;5080916;28;20039;-46
2022/05/02 05:56:49;;;;;;;17.98;13.30;;;7.10;99.90;;;;;;5089877;28;20044;-46
2022/05/02 05:59:59;;;;;;;18.27;13.75;;;7.20;99.90;;;;;;5087375;28;20039;-45
2022/05/02 06:02:48;;;;;;;16.00;13.10;;;7.30;99.90;;;;;;5053627;28;20055;-47
2022/05/02 06:05:14;;;;;;;17.52;13.75;;;7.50;99.90;;;;;;5070456;28;20097;-46
2022/05/02 06:07:40;;;;;;;15.63;13.48;;;7.70;99.90;;;;;;5070410;28;20036;-47
2022/05/02 06:10:09;;;;;;;15.73;13.48;;;7.80;99.90;;;;;;5070237;28;20055;-46
2022/05/02 06:12:36;;;;;;;16.75;13.00;;;8.00;99.90;;;;;;5071022;28;20045;-45
2022/05/02 06:20:38;;;;;;;16.42;13.65;;;8.40;99.90;;;;;;5077106;28;20493;-46
2022/05/02 06:23:12;;;;;;;16.35;13.85;;;8.60;99.90;;;;;;5068316;28;20301;-45
2022/05/02 06:25:38;;;;;;;15.32;12.25;;;8.70;99.90;;;;;;5064952;28;20036;-45
2022/05/02 06:28:05;;;;;;;14.68;12.85;;;8.90;99.90;;;;;;5067763;28;20047;-46
2022/05/02 06:30:33;;;;;;;18.15;12.35;;;9.00;99.90;;;;;;5071155;28;20046;-47
2022/05/02 06:33:02;;;;;;;15.95;13.57;;;9.20;99.90;;;;;;5074346;28;20043;-47
2022/05/02 06:35:35;;;;;;;13.60;12.05;;;9.30;99.90;;;;;;5089347;28;20040;-47
2022/05/02 06:38:23;;;;;;;16.88;13.45;;;9.40;99.90;;;;;;5070156;28;20498;-47
2022/05/02 06:41:16;;;;;;;15.15;11.05;;;9.60;99.90;;;;;;5082502;28;20044;-46
2022/05/02 06:44:12;;;;;;;14.60;13.00;;;9.70;99.90;;;;;;5067618;28;20040;-48
2022/05/02 06:46:46;;;;;;;17.05;12.00;;;9.90;99.90;;;;;;5056083;28;20041;-46
2022/05/02 06:49:12;;;;;;;33.10;12.80;;;10.10;99.90;;;;;;5077188;28;20044;-46
2022/05/02 06:51:39;;;;;;;;;;;10.20;99.90;;;;;;5086406;28;20032;-45
2022/05/02 06:54:40;;;;;;;17.73;12.13;;;10.30;99.90;;;;;;5090156;28;20439;-47
2022/05/02 06:57:43;;;;;;;19.17;12.20;;;10.40;99.90;;;;;;5073855;28;20040;-47
2022/05/02 07:00:15;;;;;;;16.83;11.68;;;10.50;99.90;;;;;;5079896;28;20046;-46
2022/05/02 07:03:02;;;;;;;12.80;10.85;;;10.60;99.90;;;;;;5085835;28;20044;-45
2022/05/02 07:05:43;;;;;;;16.75;13.70;;;10.70;99.80;;;;;;5093098;28;20075;-47
2022/05/02 07:08:09;;;;;;;15.38;11.48;;;10.80;99.60;;;;;;5076851;28;20044;-47
2022/05/02 07:10:37;;;;;;;14.23;11.43;;;11.00;99.40;;;;;;5074264;28;20048;-46
2022/05/02 07:13:33;;;;;;;14.95;11.75;;;11.00;99.30;;;;;;5073117;28;20040;-46
2022/05/02 07:16:22;;;;;;;14.05;11.82;;;11.10;99.20;;;;;;5090491;28;20044;-46
2022/05/02 07:19:09;;;;;;;16.98;9.27;;;11.30;98.90;;;;;;5093362;28;20051;-48
2022/05/02 07:21:49;;;;;;;15.23;9.85;;;11.40;98.50;;;;;;5052337;28;20064;-47
2022/05/02 07:24:34;;;;;;;12.20;9.15;;;11.60;98.40;;;;;;5089040;28;20039;-48
2022/05/02 07:27:13;;;;;;;13.15;9.32;;;11.60;97.70;;;;;;5092969;28;20524;-46
2022/05/02 07:29:42;;;;;;;11.02;9.00;;;11.70;97.50;;;;;;5071674;28;20111;-46
2022/05/02 07:32:10;;;;;;;16.05;10.65;;;11.80;97.30;;;;;;5079164;28;20451;-46
2022/05/02 07:34:38;;;;;;;14.52;8.80;;;11.90;97.30;;;;;;5072862;28;20044;-46
2022/05/02 07:37:05;;;;;;;14.18;8.50;;;12.00;97.50;;;;;;5085640;28;20047;-48
2022/05/02 07:39:32;;;;;;;9.88;8.88;;;12.20;96.90;;;;;;5081944;28;20039;-46
2022/05/02 07:42:04;;;;;;;12.23;9.02;;;12.20;96.50;;;;;;5092103;28;20417;-46
2022/05/02 07:44:33;;;;;;;19.80;9.60;;;12.30;96.50;;;;;;5074424;28;20501;-48
2022/05/02 07:47:02;;;;;;;13.60;8.50;;;12.50;96.40;;;;;;5072449;28;20040;-47
2022/05/02 07:49:28;;;;;;;10.45;8.18;;;12.50;96.00;;;;;;5090615;28;20444;-46
2022/05/02 07:51:57;;;;;;;10.25;8.35;;;12.60;95.80;;;;;;5083496;28;20481;-46
2022/05/02 07:54:28;;;;;;;7.63;6.60;;;12.70;95.60;;;;;;5086541;28;20036;-48
2022/05/02 07:56:58;;;;;;;12.75;8.77;;;12.80;95.10;;;;;;5086722;28;20032;-47
2022/05/02 07:59:28;;;;;;;12.50;6.55;;;12.90;94.90;;;;;;5075744;28;20098;-46
2022/05/02 08:01:54;;;;;;;11.90;7.40;;;13.00;94.40;;;;;;5072055;28;20055;-46
2022/05/02 08:04:19;;;;;;;8.45;5.47;;;13.10;94.10;;;;;;5090374;28;20443;-48
2022/05/02 08:06:49;;;;;;;12.07;7.38;;;13.20;93.10;;;;;;5076337;28;20429;-46
2022/05/02 08:09:36;;;;;;;7.40;5.50;;;13.40;93.30;;;;;;5077066;28;20093;-45
2022/05/02 08:12:18;;;;;;;8.57;6.10;;;13.40;91.60;;;;;;5081896;28;20044;-47
2022/05/02 08:15:07;;;;;;;9.73;6.35;;;13.50;92.10;;;;;;5058408;28;20032;-47
2022/05/02 08:17:57;;;;;;;7.68;5.93;;;13.60;91.30;;;;;;5070146;28;20067;-48
2022/05/02 08:20:31;;;;;;;7.60;6.63;;;13.70;91.20;;;;;;5068692;28;20086;-46
2022/05/02 08:29:33;;;;;;;8.63;6.72;;;14.00;90.90;;;;;;5077748;28;20066;-46
2022/05/02 08:32:10;;;;;;;7.78;6.25;;;14.10;88.70;;;;;;5067810;28;20064;-46
2022/05/02 08:34:38;;;;;;;9.00;4.80;;;14.20;90.20;;;;;;5067092;28;20044;-48
2022/05/02 08:37:30;;;;;;;9.45;6.38;;;14.40;89.30;;;;;;5069364;28;20656;-46
2022/05/02 08:40:10;;;;;;;10.88;4.82;;;14.40;88.90;;;;;;5067782;28;20085;-48
2022/05/02 08:43:15;;;;;;;7.32;5.30;;;14.60;87.70;;;;;;5066276;28;20220;-47
2022/05/02 08:46:11;;;;;;;5.20;3.35;;;14.70;84.60;;;;;;5066880;28;20119;-47
2022/05/02 08:52:13;;;;;;;5.28;4.15;;;14.80;81.30;;;;;;5063483;28;20044;-47
2022/05/02 08:55:15;;;;;;;7.47;5.05;;;14.90;79.10;;;;;;5068569;28;20040;-47
2022/05/02 08:58:14;;;;;;;9.35;5.10;;;14.90;78.60;;;;;;5063561;28;20068;-48
2022/05/02 09:01:00;;;;;;;9.13;4.75;;;15.00;80.10;;;;;;5078387;28;20163;-46
2022/05/02 09:03:47;;;;;;;9.25;4.65;;;15.10;79.80;;;;;;5066740;28;20466;-46
2022/05/02 09:06:36;;;;;;;11.65;5.63;;;15.20;78.40;;;;;;5080972;28;20471;-46
2022/05/02 09:09:26;;;;;;;5.45;4.88;;;15.20;77.10;;;;;;5076650;28;20508;-46
2022/05/02 09:12:17;;;;;;;5.75;4.88;;;15.20;78.70;;;;;;5048244;28;20053;-49
2022/05/02 09:15:12;;;;;;;8.40;5.32;;;15.30;77.60;;;;;;5086145;28;20524;-47
2022/05/02 09:18:09;;;;;;;6.90;5.60;;;15.40;77.70;;;;;;5067107;28;20091;-47
2022/05/02 09:20:58;;;;;;;5.82;4.47;;;15.50;77.80;;;;;;5068951;28;20043;-47
2022/05/02 09:23:29;;;;;;;5.93;5.35;;;15.60;76.90;;;;;;5066694;28;20554;-47
2022/05/02 09:26:27;;;;;;;5.78;4.88;;;15.70;79.20;;;;;;5065554;28;20448;-46
2022/05/02 09:29:29;;;;;;;7.97;5.95;;;15.80;77.00;;;;;;5071735;28;20582;-46
2022/05/02 09:32:06;;;;;;;7.35;5.57;;;15.90;79.50;;;;;;5043623;28;20500;-46
2022/05/02 09:34:35;;;;;;;9.85;5.85;;;16.00;76.40;;;;;;5073336;28;20044;-48
2022/05/02 09:37:15;;;;;;;7.47;5.80;;;16.10;76.70;;;;;;5066611;28;20043;-47
2022/05/02 09:40:04;;;;;;;7.22;6.13;;;16.10;75.60;;;;;;5066215;28;20413;-47
2022/05/02 09:43:00;;;;;;;6.13;5.53;;;16.20;73.80;;;;;;5084966;28;20062;-47
2022/05/02 09:51:38;;;;;;;9.52;6.55;;;16.30;75.00;;;;;;5055194;28;20040;-47
2022/05/02 09:54:14;;;;;;;9.10;6.70;;;16.30;70.40;;;;;;5079852;28;20115;-47
2022/05/02 09:56:46;;;;;;;11.10;5.70;;;16.30;72.40;;;;;;5081205;28;20086;-47
2022/05/02 09:59:18;;;;;;;12.27;6.75;;;16.30;73.20;;;;;;5079645;28;20104;-46
2022/05/02 10:01:48;;;;;;;6.32;5.72;;;16.40;73.40;;;;;;5067292;28;20037;-46
2022/05/02 10:04:32;;;;;;;9.52;6.57;;;16.50;73.00;;;;;;5079357;28;20076;-46
2022/05/02 10:07:19;;;;;;;7.40;6.55;;;16.60;71.90;;;;;;5084176;28;20414;-46
2022/05/02 10:09:52;;;;;;;9.90;6.85;;;16.60;70.30;;;;;;5085957;28;20051;-46
2022/05/02 10:12:26;;;;;;;10.55;6.60;;;16.50;69.80;;;;;;5083315;28;20117;-47
2022/05/02 10:15:15;;;;;;;13.48;7.03;;;16.60;70.50;;;;;;5085344;28;20044;-46
2022/05/02 10:18:02;;;;;;;9.40;7.35;;;16.60;70.40;;;;;;5083379;28;20119;-47
2022/05/02 10:20:55;;;;;;;11.50;6.93;;;16.80;71.80;;;;;;5086009;28;20369;-48
2022/05/02 10:23:51;;;;;;;11.23;7.18;;;16.80;69.50;;;;;;5045470;28;20056;-46
2022/05/02 10:26:42;;;;;;;10.75;6.75;;;16.80;70.50;;;;;;5057637;28;20163;-47
2022/05/02 10:29:42;;;;;;;12.25;7.25;;;16.70;69.40;;;;;;5071219;28;20041;-46
2022/05/02 10:32:17;;;;;;;8.13;6.65;;;16.60;69.20;;;;;;5078393;28;20455;-46
2022/05/02 10:34:46;;;;;;;13.07;7.63;;;16.60;68.50;;;;;;5083620;28;20028;-47
2022/05/02 10:37:15;;;;;;;11.77;7.05;;;16.60;69.50;;;;;;5065309;28;20151;-49
2022/05/02 10:39:47;;;;;;;8.35;7.35;;;16.60;69.20;;;;;;5082757;28;20050;-46
2022/05/02 10:42:25;;;;;;;9.82;7.72;;;16.60;68.80;;;;;;5078594;28;20043;-47
2022/05/02 10:45:04;;;;;;;7.78;7.03;;;16.70;69.60;;;;;;5067829;28;20051;-47
2022/05/02 10:47:41;;;;;;;11.15;8.18;;;16.70;70.70;;;;;;5062395;28;20043;-47
2022/05/02 10:50:18;;;;;;;;;;;16.80;69.10;;;;;;5063307;28;20040;-47
2022/05/02 10:53:00;;;;;;;8.48;7.60;;;16.90;69.20;;;;;;5065126;28;19916;-47
2022/05/02 10:55:30;;;;;;;9.65;8.05;;;17.00;68.50;;;;;;5070948;28;20040;-47
2022/05/02 10:58:04;;;;;;;9.73;7.32;;;17.20;69.50;;;;;;5081480;28;20459;-47
2022/05/02 11:00:31;;;;;;;8.40;7.60;;;17.30;68.20;;;;;;5072808;28;20036;-46
2022/05/02 11:03:28;;;;;;;22.83;9.88;;;17.30;67.70;;;;;;5081755;28;20078;-46
2022/05/02 11:06:18;;;;;;;9.45;7.65;;;17.10;66.50;;;;;;5065545;28;20037;-46
2022/05/02 11:08:47;;;;;;;8.32;7.50;;;17.00;66.60;;;;;;5064516;28;20040;-47
2022/05/02 11:11:36;;;;;;;11.00;8.15;;;17.00;68.20;;;;;;5072765;28;20036;-47
2022/05/02 11:14:27;;;;;;;11.70;6.97;;;17.10;65.10;;;;;;5072506;28;20040;-50
2022/05/02 11:17:25;;;;;;;10.48;8.40;;;17.10;67.30;;;;;;5077153;28;20512;-47
2022/05/02 11:23:08;;;;;;;10.15;7.80;;;17.10;66.20;;;;;;5065314;28;20045;-46
2022/05/02 11:25:46;;;;;;;8.23;7.53;;;17.10;66.10;;;;;;5013197;28;20599;-47
2022/05/02 11:28:24;;;;;;;8.32;7.53;;;17.10;66.80;;;;;;5072691;28;20143;-46
2022/05/02 11:30:57;;;;;;;8.38;7.28;;;17.10;67.70;;;;;;5077660;28;20071;-46
2022/05/02 11:33:32;;;;;;;11.15;7.85;;;17.20;66.60;;;;;;5088591;28;20036;-46
2022/05/02 11:36:06;;;;;;;14.75;8.75;;;17.20;65.40;;;;;;5078598;28;20101;-47
2022/05/02 11:38:39;;;;;;;10.48;8.57;;;17.20;64.90;;;;;;5081902;28;20103;-46
2022/05/02 11:41:23;;;;;;;12.00;8.73;;;17.30;65.70;;;;;;5068388;28;20044;-47
2022/05/02 11:43:59;;;;;;;14.70;7.60;;;17.30;67.90;;;;;;5086817;28;20048;-46
2022/05/02 11:46:25;;;;;;;9.90;7.13;;;17.40;68.70;;;;;;5086323;28;20051;-46
2022/05/02 11:49:28;;;;;;;8.85;7.95;;;17.50;67.00;;;;;;5070288;28;20139;-47
2022/05/02 11:51:56;;;;;;;8.68;7.22;;;17.70;66.00;;;;;;5086097;28;20501;-47
2022/05/02 11:54:21;;;;;;;8.60;7.72;;;17.80;66.00;;;;;;5088036;28;20052;-47
2022/05/02 11:57:10;;;;;;;9.00;7.60;;;17.80;65.50;;;;;;5070229;28;20037;-46
2022/05/02 12:00:05;;;;;;;8.90;7.10;;;17.80;65.00;;;;;;5048158;28;20045;-48
2022/05/02 12:02:37;;;;;;;11.43;7.68;;;17.90;63.30;;;;;;5080179;28;20056;-46
2022/05/02 12:05:27;;;;;;;10.73;8.20;;;17.90;63.30;;;;;;5052752;28;20058;-46
2022/05/02 12:08:01;;;;;;;9.93;8.93;;;18.00;67.10;;;;;;5073081;28;20092;-47
2022/05/02 12:10:34;;;;;;;9.02;7.63;;;18.10;66.00;;;;;;5067619;28;20041;-46
2022/05/02 12:13:01;;;;;;;13.52;7.88;;;18.10;66.00;;;;;;5071998;28;20040;-47
2022/05/02 12:15:27;;;;;;;8.30;7.50;;;18.10;65.00;;;;;;5087330;28;20067;-47
2022/05/02 12:17:54;;;;;;;;;;;18.20;64.50;;;;;;5071071;28;20045;-46
2022/05/02 12:20:27;;;;;;;13.65;9.02;;;18.20;63.80;;;;;;5070886;28;19916;-46
2022/05/02 12:22:55;;;;;;;11.52;8.57;;;18.20;66.60;;;;;;5077170;28;20115;-46
2022/05/02 12:25:23;;;;;;;8.82;7.80;;;18.30;65.30;;;;;;5086992;28;20043;-46
2022/05/02 12:27:50;;;;;;;11.48;7.13;;;18.30;66.30;;;;;;5085344;28;20090;-46
2022/05/02 12:30:18;;;;;;;11.45;6.60;;;18.40;64.90;;;;;;5087748;28;20051;-46
2022/05/02 12:32:45;;;;;;;8.00;7.05;;;18.50;65.50;;;;;;5078207;28;20036;-47
2022/05/02 12:35:12;;;;;;;8.57;7.68;;;18.60;64.30;;;;;;5066498;28;20447;-47
2022/05/02 12:37:40;;;;;;;9.32;8.38;;;18.60;64.40;;;;;;5074595;28;20074;-47
2022/05/02 12:40:08;;;;;;;9.27;7.47;;;18.50;63.30;;;;;;5085685;28;20040;-47
2022/05/02 12:42:47;;;;;;;8.35;7.47;;;18.40;63.50;;;;;;5079321;28;20047;-48
2022/05/02 12:45:16;;;;;;;22.90;6.80;;;18.30;63.90;;;;;;5066492;28;20497;-46
2022/05/02 12:47:53;;;;;;;8.55;6.53;;;18.30;64.20;;;;;;5068071;28;20040;-47
2022/05/02 12:50:21;;;;;;;9.07;7.43;;;18.40;62.70;;;;;;5067453;28;20493;-46
2022/05/02 12:52:55;;;;;;;9.88;7.15;;;18.50;63.30;;;;;;5074935;28;20516;-47
2022/05/02 12:55:23;;;;;;;12.15;7.50;;;18.70;62.40;;;;;;5086009;28;20047;-48
2022/05/02 13:00:43;;;;;;;10.15;7.53;;;18.80;62.70;;;;;;5067071;28;20052;-46
2022/05/02 13:03:16;;;;;;;7.40;6.65;;;18.70;61.90;;;;;;5078341;28;20046;-46
2022/05/02 13:06:03;;;;;;;13.77;6.20;;;18.70;62.40;;;;;;5086332;28;20036;-47
2022/05/02 13:08:41;;;;;;;7.18;6.50;;;18.70;62.40;;;;;;5072056;28;20040;-46
2022/05/02 13:11:11;;;;;;;7.90;7.00;;;18.80;60.70;;;;;;5066449;28;20044;-47
2022/05/02 13:13:45;;;;;;;12.93;7.97;;;18.70;61.80;;;;;;5081126;28;20538;-46
2022/05/02 13:16:25;;;;;;;10.38;7.55;;;18.80;62.10;;;;;;5082260;28;20060;-47
2022/05/02 13:18:52;;;;;;;7.75;6.82;;;18.80;59.80;;;;;;5067786;28;20044;-47
2022/05/02 13:21:19;;;;;;;6.38;5.78;;;18.90;61.40;;;;;;5069816;28;20028;-46
2022/05/02 13:23:47;;;;;;;10.88;7.13;;;18.90;62.30;;;;;;5086962;28;20035;-46
2022/05/02 13:26:18;;;;;;;8.43;5.68;;;18.80;59.10;;;;;;5083472;28;20037;-46
2022/05/02 13:28:59;;;;;;;9.55;6.15;;;18.70;60.60;;;;;;5076231;28;20052;-47
2022/05/02 13:31:41;;;;;;;9.23;6.05;;;18.70;60.30;;;;;;5079625;28;20044;-46
2022/05/02 13:34:31;;;;;;;8.27;7.30;;;18.70;59.90;;;;;;5086728;28;20048;-46
2022/05/02 13:37:26;;;;;;;9.73;6.55;;;18.60;58.10;;;;;;5067684;28;20043;-46
2022/05/02 13:40:09;;;;;;;8.02;6.57;;;18.50;58.60;;;;;;5062226;28;20056;-47
2022/05/02 13:42:36;;;;;;;9.23;6.95;;;18.40;58.30;;;;;;5080618;28;20499;-48
2022/05/02 13:45:15;;;;;;;8.20;6.10;;;18.40;59.80;;;;;;5063763;28;20090;-46
2022/05/02 13:47:51;;;;;;;5.90;5.10;;;18.30;60.80;;;;;;5070775;28;20036;-47
2022/05/02 13:50:23;;;;;;;7.78;4.97;;;18.40;59.00;;;;;;5070435;28;20045;-47
2022/05/02 13:52:51;;;;;;;7.90;5.10;;;18.40;59.50;;;;;;5072639;28;20397;-46